sensor_id;sensor_type;location;lat;lon;timestamp;temperature;humidity
19385;DHT22;9828;54.122;17.974;2022-10-29T00:18:24;12.30;99.90
19385;DHT22;9828;54.122;17.974;2022-10-29T00:23:45;12.30;99.90
19385;DHT22;9828;54.122;17.974;2022-10-29T05:33:46;14.20;99.90
19385;DHT22;9828;54.122;17.974;2022-10-29T05:39:08;14.30;99.90
19385;DHT22;9828;54.122;17.974;2022-10-29T05:44:29;14.20;99.90
19385;DHT22;9828;54.122;17.974;2022-10-29T05:49:50;14.10;99.90
19385;DHT22;9828;54.122;17.974;2022-10-29T05:55:11;14.00;99.90
19385;DHT22;9828;54.122;17.974;2022-10-29T06:00:35;13.90;99.90
19385;DHT22;9828;54.122;17.974;2022-10-29T06:05:56;14.10;99.90
19385;DHT22;9828;54.122;17.974;2022-10-29T06:11:17;14.10;99.90
19385;DHT22;9828;54.122;17.974;2022-10-29T06:16:39;14.10;99.90
19385;DHT22;9828;54.122;17.974;2022-10-29T06:22:00;14.10;99.90
19385;DHT22;9828;54.122;17.974;2022-10-29T06:27:22;14.00;99.90
19385;DHT22;9828;54.122;17.974;2022-10-29T06:32:45;14.10;99.90
19385;DHT22;9828;54.122;17.974;2022-10-29T06:38:07;14.10;99.90
19385;DHT22;9828;54.122;17.974;2022-10-29T06:43:28;14.10;99.90
19385;DHT22;9828;54.122;17.974;2022-10-29T06:48:49;14.00;99.90
19385;DHT22;9828;54.122;17.974;2022-10-29T06:54:10;14.00;99.90
19385;DHT22;9828;54.122;17.974;2022-10-29T06:59:32;14.10;99.90
19385;DHT22;9828;54.122;17.974;2022-10-29T07:04:52;14.10;99.90
19385;DHT22;9828;54.122;17.974;2022-10-29T07:37:07;14.30;99.90
19385;DHT22;9828;54.122;17.974;2022-10-29T07:42:28;14.50;99.90
19385;DHT22;9828;54.122;17.974;2022-10-29T07:48:05;14.70;99.90
19385;DHT22;9828;54.122;17.974;2022-10-29T07:53:29;15.00;99.90
19385;DHT22;9828;54.122;17.974;2022-10-29T07:58:53;15.10;99.90
19385;DHT22;9828;54.122;17.974;2022-10-29T08:04:14;15.10;99.90
19385;DHT22;9828;54.122;17.974;2022-10-29T08:09:36;15.10;99.90
19385;DHT22;9828;54.122;17.974;2022-10-29T08:14:57;15.00;99.90
19385;DHT22;9828;54.122;17.974;2022-10-29T08:20:18;14.90;99.90
19385;DHT22;9828;54.122;17.974;2022-10-29T08:25:39;14.90;99.90
19385;DHT22;9828;54.122;17.974;2022-10-29T08:31:02;15.10;99.90
19385;DHT22;9828;54.122;17.974;2022-10-29T08:36:23;15.30;99.90
19385;DHT22;9828;54.122;17.974;2022-10-29T08:58:18;15.50;99.90
19385;DHT22;9828;54.122;17.974;2022-10-29T09:03:43;15.60;99.90
19385;DHT22;9828;54.122;17.974;2022-10-29T09:09:43;15.80;99.90
19385;DHT22;9828;54.122;17.974;2022-10-29T09:26:56;15.70;99.90
19385;DHT22;9828;54.122;17.974;2022-10-29T09:43:47;15.50;99.90
19385;DHT22;9828;54.122;17.974;2022-10-29T09:54:53;15.50;99.90
19385;DHT22;9828;54.122;17.974;2022-10-29T10:00:24;15.60;99.90
19385;DHT22;9828;54.122;17.974;2022-10-29T10:06:05;15.90;99.90
19385;DHT22;9828;54.122;17.974;2022-10-29T10:11:39;16.00;99.90
19385;DHT22;9828;54.122;17.974;2022-10-29T10:17:02;16.30;99.90
19385;DHT22;9828;54.122;17.974;2022-10-29T10:22:23;16.40;99.90
19385;DHT22;9828;54.122;17.974;2022-10-29T10:27:44;16.50;99.90
19385;DHT22;9828;54.122;17.974;2022-10-29T10:33:25;16.40;99.90
19385;DHT22;9828;54.122;17.974;2022-10-29T10:39:12;16.50;99.90
19385;DHT22;9828;54.122;17.974;2022-10-29T10:44:44;16.40;99.90
19385;DHT22;9828;54.122;17.974;2022-10-29T10:50:30;16.50;99.90
19385;DHT22;9828;54.122;17.974;2022-10-29T10:55:54;16.70;99.90
19385;DHT22;9828;54.122;17.974;2022-10-29T11:01:38;16.80;99.10
19385;DHT22;9828;54.122;17.974;2022-10-29T11:07:06;16.70;99.90
19385;DHT22;9828;54.122;17.974;2022-10-29T11:12:56;16.60;99.90
19385;DHT22;9828;54.122;17.974;2022-10-29T11:18:22;16.50;99.90
19385;DHT22;9828;54.122;17.974;2022-10-29T11:23:55;17.20;99.00
19385;DHT22;9828;54.122;17.974;2022-10-29T11:40:57;19.50;75.10
19385;DHT22;9828;54.122;17.974;2022-10-29T11:52:10;20.40;60.70
19385;DHT22;9828;54.122;17.974;2022-10-29T12:03:06;20.80;50.20
19385;DHT22;9828;54.122;17.974;2022-10-29T12:19:53;20.60;48.20
19385;DHT22;9828;54.122;17.974;2022-10-29T12:37:04;18.70;53.30
19385;DHT22;9828;54.122;17.974;2022-10-29T12:42:28;18.00;58.80
19385;DHT22;9828;54.122;17.974;2022-10-29T12:48:09;17.50;72.30
19385;DHT22;9828;54.122;17.974;2022-10-29T12:59:33;16.90;83.30
19385;DHT22;9828;54.122;17.974;2022-10-29T13:32:37;15.60;93.20
19385;DHT22;9828;54.122;17.974;2022-10-29T13:38:10;15.60;93.70
19385;DHT22;9828;54.122;17.974;2022-10-29T13:48:53;15.40;93.40
19385;DHT22;9828;54.122;17.974;2022-10-29T13:54:34;15.40;93.60
19385;DHT22;9828;54.122;17.974;2022-10-29T14:00:18;15.20;94.10
19385;DHT22;9828;54.122;17.974;2022-10-29T14:05:49;15.20;94.70
19385;DHT22;9828;54.122;17.974;2022-10-29T14:11:23;15.10;95.70
19385;DHT22;9828;54.122;17.974;2022-10-29T14:16:44;15.00;95.80
19385;DHT22;9828;54.122;17.974;2022-10-29T14:27:38;14.80;97.30
19385;DHT22;9828;54.122;17.974;2022-10-29T14:32:59;14.70;98.40
19385;DHT22;9828;54.122;17.974;2022-10-29T14:38:25;14.60;99.30
19385;DHT22;9828;54.122;17.974;2022-10-29T14:44:13;14.40;99.90
19385;DHT22;9828;54.122;17.974;2022-10-29T14:49:44;14.30;99.90
19385;DHT22;9828;54.122;17.974;2022-10-29T14:55:17;14.20;99.90
19385;DHT22;9828;54.122;17.974;2022-10-29T15:00:54;14.00;99.90
19385;DHT22;9828;54.122;17.974;2022-10-29T15:06:25;14.10;99.90
19385;DHT22;9828;54.122;17.974;2022-10-29T15:12:07;13.90;99.90
19385;DHT22;9828;54.122;17.974;2022-10-29T15:17:46;13.80;99.90
19385;DHT22;9828;54.122;17.974;2022-10-29T15:28:44;13.50;99.90
19385;DHT22;9828;54.122;17.974;2022-10-29T15:34:08;13.30;99.90
19385;DHT22;9828;54.122;17.974;2022-10-29T15:45:18;13.30;99.90
19385;DHT22;9828;54.122;17.974;2022-10-29T15:50:41;13.20;99.90
19385;DHT22;9828;54.122;17.974;2022-10-29T15:56:03;13.10;99.90
19385;DHT22;9828;54.122;17.974;2022-10-29T16:01:25;13.00;99.90
19385;DHT22;9828;54.122;17.974;2022-10-29T16:06:46;13.10;99.90
19385;DHT22;9828;54.122;17.974;2022-10-29T16:12:09;13.00;99.90
19385;DHT22;9828;54.122;17.974;2022-10-29T16:17:30;13.00;99.90
19385;DHT22;9828;54.122;17.974;2022-10-29T16:22:51;12.90;99.90
19385;DHT22;9828;54.122;17.974;2022-10-29T16:28:12;12.90;99.90
19385;DHT22;9828;54.122;17.974;2022-10-29T16:33:34;12.80;99.90
19385;DHT22;9828;54.122;17.974;2022-10-29T17:32:34;12.40;99.90
19385;DHT22;9828;54.122;17.974;2022-10-29T17:37:55;12.30;99.90
19385;DHT22;9828;54.122;17.974;2022-10-29T17:48:38;12.00;99.90
19385;DHT22;9828;54.122;17.974;2022-10-29T17:53:59;11.90;99.90
19385;DHT22;9828;54.122;17.974;2022-10-29T17:59:20;11.90;99.90
19385;DHT22;9828;54.122;17.974;2022-10-29T18:04:41;11.80;99.90
19385;DHT22;9828;54.122;17.974;2022-10-29T18:10:04;11.80;99.90
19385;DHT22;9828;54.122;17.974;2022-10-29T18:15:26;11.80;99.90
19385;DHT22;9828;54.122;17.974;2022-10-29T18:20:47;11.80;99.90
19385;DHT22;9828;54.122;17.974;2022-10-29T18:31:48;11.90;99.90
19385;DHT22;9828;54.122;17.974;2022-10-29T18:37:09;11.90;99.90
19385;DHT22;9828;54.122;17.974;2022-10-29T18:42:31;11.80;99.90
19385;DHT22;9828;54.122;17.974;2022-10-29T18:47:52;11.90;99.90
19385;DHT22;9828;54.122;17.974;2022-10-29T18:53:13;11.90;99.90
19385;DHT22;9828;54.122;17.974;2022-10-29T18:58:34;11.90;99.90
19385;DHT22;9828;54.122;17.974;2022-10-29T19:03:56;11.80;99.90
19385;DHT22;9828;54.122;17.974;2022-10-29T19:09:18;11.80;99.90
19385;DHT22;9828;54.122;17.974;2022-10-29T19:14:39;11.90;99.90
19385;DHT22;9828;54.122;17.974;2022-10-29T19:20:00;11.90;99.90
19385;DHT22;9828;54.122;17.974;2022-10-29T19:25:23;11.90;99.90
19385;DHT22;9828;54.122;17.974;2022-10-29T19:30:44;11.90;99.90
19385;DHT22;9828;54.122;17.974;2022-10-29T19:36:07;11.90;99.90
19385;DHT22;9828;54.122;17.974;2022-10-29T19:41:28;11.90;99.90
19385;DHT22;9828;54.122;17.974;2022-10-29T19:46:50;11.90;99.90
19385;DHT22;9828;54.122;17.974;2022-10-29T19:52:11;11.90;99.90
19385;DHT22;9828;54.122;17.974;2022-10-29T19:57:32;12.00;99.90
19385;DHT22;9828;54.122;17.974;2022-10-29T20:02:53;11.90;99.90
19385;DHT22;9828;54.122;17.974;2022-10-29T20:08:14;11.90;99.90
19385;DHT22;9828;54.122;17.974;2022-10-29T20:13:36;11.90;99.90
19385;DHT22;9828;54.122;17.974;2022-10-29T20:18:59;11.90;99.90
19385;DHT22;9828;54.122;17.974;2022-10-29T20:24:20;11.90;99.90
19385;DHT22;9828;54.122;17.974;2022-10-29T20:29:41;11.90;99.90
19385;DHT22;9828;54.122;17.974;2022-10-29T20:35:03;11.90;99.90
19385;DHT22;9828;54.122;17.974;2022-10-29T20:40:24;11.90;99.90
19385;DHT22;9828;54.122;17.974;2022-10-29T20:45:45;11.90;99.90
19385;DHT22;9828;54.122;17.974;2022-10-29T20:51:07;11.90;99.90
19385;DHT22;9828;54.122;17.974;2022-10-29T20:56:28;11.90;99.90
19385;DHT22;9828;54.122;17.974;2022-10-29T21:01:49;11.80;99.90
19385;DHT22;9828;54.122;17.974;2022-10-29T21:07:11;11.80;99.90
19385;DHT22;9828;54.122;17.974;2022-10-29T21:12:32;11.80;99.90
19385;DHT22;9828;54.122;17.974;2022-10-29T21:17:53;11.80;99.90
19385;DHT22;9828;54.122;17.974;2022-10-29T21:23:14;11.70;99.90
19385;DHT22;9828;54.122;17.974;2022-10-29T21:28:38;11.70;99.90
19385;DHT22;9828;54.122;17.974;2022-10-29T21:33:59;11.70;99.90
19385;DHT22;9828;54.122;17.974;2022-10-29T21:39:21;11.70;99.90
19385;DHT22;9828;54.122;17.974;2022-10-29T21:44:42;11.70;99.90
19385;DHT22;9828;54.122;17.974;2022-10-29T21:50:03;11.60;99.90
19385;DHT22;9828;54.122;17.974;2022-10-29T21:55:24;11.60;99.90
19385;DHT22;9828;54.122;17.974;2022-10-29T22:00:45;11.50;99.90
19385;DHT22;9828;54.122;17.974;2022-10-29T22:06:12;11.50;99.90
19385;DHT22;9828;54.122;17.974;2022-10-29T22:11:33;11.50;99.90
19385;DHT22;9828;54.122;17.974;2022-10-29T22:16:54;11.60;99.90
19385;DHT22;9828;54.122;17.974;2022-10-29T22:22:17;11.60;99.90
19385;DHT22;9828;54.122;17.974;2022-10-29T22:27:56;11.60;99.90
19385;DHT22;9828;54.122;17.974;2022-10-29T22:33:17;11.40;99.90
19385;DHT22;9828;54.122;17.974;2022-10-29T22:38:38;11.50;99.90
19385;DHT22;9828;54.122;17.974;2022-10-29T22:43:59;11.40;99.90
19385;DHT22;9828;54.122;17.974;2022-10-29T22:49:20;11.40;99.90
19385;DHT22;9828;54.122;17.974;2022-10-29T22:54:41;11.40;99.90
19385;DHT22;9828;54.122;17.974;2022-10-29T23:00:03;11.40;99.90
19385;DHT22;9828;54.122;17.974;2022-10-29T23:05:24;11.30;99.90
19385;DHT22;9828;54.122;17.974;2022-10-29T23:10:45;11.40;99.90
19385;DHT22;9828;54.122;17.974;2022-10-29T23:16:06;11.30;99.90
19385;DHT22;9828;54.122;17.974;2022-10-29T23:21:28;11.30;99.90
19385;DHT22;9828;54.122;17.974;2022-10-29T23:26:49;11.40;99.90
19385;DHT22;9828;54.122;17.974;2022-10-29T23:32:10;11.40;99.90
19385;DHT22;9828;54.122;17.974;2022-10-29T23:37:31;11.50;99.90
19385;DHT22;9828;54.122;17.974;2022-10-29T23:42:52;11.50;99.90
19385;DHT22;9828;54.122;17.974;2022-10-29T23:48:13;11.50;99.90
19385;DHT22;9828;54.122;17.974;2022-10-29T23:53:34;11.40;99.90
19385;DHT22;9828;54.122;17.974;2022-10-29T23:58:56;11.40;99.90
